Time;durP1;ratioP1;P1;durP2;ratioP2;P2;SDS_P1;SDS_P2;PMS_P1;PMS_P2;Temp;Humidity;BMP_temperature;BMP_pressure;BME280_temperature;BME280_humidity;BME280_pressure;Samples;Min_cycle;Max_cycle;Signal;HPM_P1;HPM_P2
2023/05/25 00:00:38;;;;;;;8.07;3.40;;;;;;;;;;5083561;28;20232;-60
2023/05/25 00:03:26;;;;;;;6.33;3.40;;;;;;;;;;5079926;28;20215;-61
2023/05/25 00:05:54;;;;;;;7.53;3.40;;;;;;;;;;5081029;28;20232;-61
2023/05/25 00:08:21;;;;;;;6.80;3.50;;;;;;;;;;5086372;28;20271;-67
2023/05/25 00:10:49;;;;;;;8.47;3.70;;;;;;;;;;5086011;28;20204;-62
2023/05/25 00:13:16;;;;;;;7.47;3.57;;;;;;;;;;5085485;28;20715;-60
2023/05/25 00:15:43;;;;;;;7.80;3.03;;;;;;;;;;5082892;28;20897;-59
2023/05/25 00:18:11;;;;;;;7.13;3.13;;;;;;;;;;5084214;28;20269;-59
2023/05/25 00:20:39;;;;;;;8.90;3.67;;;;;;;;;;5086124;28;20223;-60
2023/05/25 00:23:06;;;;;;;6.63;3.57;;;;;;;;;;5090911;28;20201;-62
2023/05/25 00:25:33;;;;;;;9.93;4.07;;;;;;;;;;5090021;28;20204;-61
2023/05/25 00:28:03;;;;;;;4.83;3.10;;;;;;;;;;5085948;28;20259;-59
2023/05/25 00:30:30;;;;;;;6.00;3.40;;;;;;;;;;5089354;28;20264;-59
2023/05/25 00:33:00;;;;;;;8.63;3.50;;;;;;;;;;5083621;28;20235;-59
2023/05/25 00:35:27;;;;;;;8.20;3.57;;;;;;;;;;5079159;28;20223;-62
2023/05/25 00:37:54;;;;;;;11.93;3.77;;;;;;;;;;5085151;28;20204;-62
2023/05/25 00:40:22;;;;;;;9.10;4.00;;;;;;;;;;5086759;28;20252;-61
2023/05/25 00:42:50;;;;;;;7.70;3.20;;;;;;;;;;5088596;28;20283;-61
2023/05/25 00:45:17;;;;;;;7.60;2.93;;;;;;;;;;5082383;28;20201;-59
2023/05/25 00:47:45;;;;;;;7.93;3.37;;;;;;;;;;5083116;28;20200;-59
2023/05/25 00:50:14;;;;;;;6.00;3.23;;;;;;;;;;5091418;28;20267;-60
2023/05/25 00:52:41;;;;;;;8.53;3.40;;;;;;;;;;5084266;28;20200;-61
2023/05/25 00:55:10;;;;;;;7.33;3.87;;;;;;;;;;5087331;28;20690;-60
2023/05/25 00:57:39;;;;;;;7.13;3.33;;;;;;;;;;5076097;28;20333;-61
2023/05/25 01:00:10;;;;;;;7.60;3.70;;;;;;;;;;5069068;28;20278;-60
2023/05/25 01:02:41;;;;;;;7.70;3.20;;;;;;;;;;5082393;28;20242;-60
2023/05/25 01:05:11;;;;;;;5.73;2.87;;;;;;;;;;5087298;28;20205;-60
2023/05/25 01:07:38;;;;;;;6.40;3.17;;;;;;;;;;5083830;28;20258;-61
2023/05/25 01:10:06;;;;;;;9.70;3.47;;;;;;;;;;5084950;28;20278;-60
2023/05/25 01:12:38;;;;;;;6.97;3.03;;;;;;;;;;5084757;28;20196;-59
2023/05/25 01:15:06;;;;;;;6.80;3.43;;;;;;;;;;5086969;28;20204;-60
2023/05/25 01:17:36;;;;;;;10.53;3.80;;;;;;;;;;5077444;28;20279;-62
2023/05/25 01:20:08;;;;;;;8.30;3.43;;;;;;;;;;5081405;28;20319;-61
2023/05/25 01:22:44;;;;;;;8.73;3.83;;;;;;;;;;5084030;28;20228;-61
2023/05/25 01:25:13;;;;;;;6.77;3.53;;;;;;;;;;5066616;28;20205;-60
2023/05/25 01:27:45;;;;;;;9.07;3.77;;;;;;;;;;5087121;28;20200;-60
2023/05/25 01:30:13;;;;;;;7.33;3.40;;;;;;;;;;5078210;28;20233;-60
2023/05/25 01:32:41;;;;;;;9.97;3.73;;;;;;;;;;5091619;28;20204;-59
2023/05/25 01:35:10;;;;;;;6.77;3.67;;;;;;;;;;5101012;28;20233;-62
2023/05/25 01:37:40;;;;;;;6.27;3.80;;;;;;;;;;5091023;28;20662;-60
2023/05/25 01:40:08;;;;;;;8.27;3.70;;;;;;;;;;5094172;28;20231;-60
2023/05/25 01:42:35;;;;;;;8.50;3.70;;;;;;;;;;5082584;28;20693;-62
2023/05/25 01:45:03;;;;;;;9.43;4.10;;;;;;;;;;5080992;28;20208;-60
2023/05/25 01:47:33;;;;;;;7.23;3.83;;;;;;;;;;5089146;28;20205;-59
2023/05/25 01:50:06;;;;;;;6.63;3.47;;;;;;;;;;5084315;28;20220;-60
2023/05/25 01:52:43;;;;;;;8.37;4.23;;;;;;;;;;5067733;28;20221;-61
2023/05/25 01:55:18;;;;;;;10.43;4.40;;;;;;;;;;5078779;28;20212;-60
2023/05/25 01:57:48;;;;;;;7.70;4.10;;;;;;;;;;5063977;28;20196;-61
2023/05/25 02:00:16;;;;;;;9.57;3.90;;;;;;;;;;5079084;28;20323;-61
2023/05/25 02:02:45;;;;;;;8.00;4.10;;;;;;;;;;5085078;28;20231;-61
2023/05/25 02:05:13;;;;;;;6.87;3.60;;;;;;;;;;5071283;28;20215;-61
2023/05/25 02:07:40;;;;;;;8.50;3.80;;;;;;;;;;5071618;28;20557;-59
2023/05/25 02:10:07;;;;;;;10.90;4.50;;;;;;;;;;5085305;28;20217;-60
2023/05/25 02:12:35;;;;;;;7.53;4.00;;;;;;;;;;5090264;28;20259;-61
2023/05/25 02:15:02;;;;;;;7.43;4.27;;;;;;;;;;5081622;28;20204;-61
2023/05/25 02:17:29;;;;;;;8.20;4.27;;;;;;;;;;5082753;28;20305;-60
2023/05/25 02:19:57;;;;;;;9.37;5.10;;;;;;;;;;5089774;28;20306;-61
2023/05/25 02:22:24;;;;;;;8.00;3.90;;;;;;;;;;5081204;28;20244;-59
2023/05/25 02:24:51;;;;;;;8.57;4.13;;;;;;;;;;5084026;28;20197;-60
2023/05/25 02:27:19;;;;;;;7.83;4.13;;;;;;;;;;5083302;28;20209;-59
2023/05/25 02:29:46;;;;;;;8.83;4.80;;;;;;;;;;5088498;28;20701;-60
2023/05/25 02:32:13;;;;;;;10.33;5.53;;;;;;;;;;5071069;28;20208;-61
2023/05/25 02:34:41;;;;;;;12.13;5.00;;;;;;;;;;5070182;28;20217;-60
2023/05/25 02:37:08;;;;;;;10.07;4.57;;;;;;;;;;5084544;28;20757;-61
2023/05/25 02:39:35;;;;;;;10.73;4.80;;;;;;;;;;5079783;28;20224;-60
2023/05/25 02:42:03;;;;;;;8.87;4.60;;;;;;;;;;5085744;28;20720;-61
2023/05/25 02:44:30;;;;;;;11.87;5.20;;;;;;;;;;5082803;28;20615;-61
2023/05/25 02:46:58;;;;;;;11.57;4.80;;;;;;;;;;5085696;28;20206;-60
2023/05/25 02:49:25;;;;;;;8.03;4.70;;;;;;;;;;5084521;28;20220;-62
2023/05/25 02:51:52;;;;;;;12.33;5.60;;;;;;;;;;5084367;28;20228;-60
2023/05/25 02:54:20;;;;;;;11.40;5.47;;;;;;;;;;5081955;28;20227;-60
2023/05/25 02:56:47;;;;;;;12.13;5.70;;;;;;;;;;5090371;28;20643;-61
2023/05/25 02:59:14;;;;;;;12.93;5.27;;;;;;;;;;5085928;28;20236;-60
2023/05/25 03:01:42;;;;;;;9.73;5.13;;;;;;;;;;5086169;28;20617;-60
2023/05/25 03:04:09;;;;;;;11.57;5.87;;;;;;;;;;5083582;28;20204;-59
2023/05/25 03:06:36;;;;;;;11.13;5.90;;;;;;;;;;5085608;28;20908;-59
2023/05/25 03:09:05;;;;;;;8.43;4.73;;;;;;;;;;5087885;28;20306;-60
2023/05/25 03:11:32;;;;;;;10.13;5.47;;;;;;;;;;5092547;28;20249;-61
2023/05/25 03:13:59;;;;;;;9.03;5.40;;;;;;;;;;5082089;28;20237;-59
2023/05/25 03:16:27;;;;;;;11.40;5.40;;;;;;;;;;5087515;28;20213;-61
2023/05/25 03:18:54;;;;;;;10.13;5.23;;;;;;;;;;5086869;28;20497;-60
2023/05/25 03:21:22;;;;;;;10.23;5.77;;;;;;;;;;5082159;28;20588;-60
2023/05/25 03:23:49;;;;;;;11.73;6.00;;;;;;;;;;5069470;28;21610;-60
2023/05/25 03:26:17;;;;;;;13.03;6.00;;;;;;;;;;5077489;28;20628;-61
2023/05/25 03:28:44;;;;;;;11.43;6.00;;;;;;;;;;5084153;28;20701;-60
2023/05/25 03:31:12;;;;;;;10.13;5.97;;;;;;;;;;5065430;28;20580;-61
2023/05/25 03:33:40;;;;;;;12.73;6.57;;;;;;;;;;5087083;28;20659;-59
2023/05/25 03:36:08;;;;;;;13.20;6.03;;;;;;;;;;5081743;28;20825;-59
2023/05/25 03:38:36;;;;;;;10.60;6.60;;;;;;;;;;5067305;28;20217;-61
2023/05/25 03:41:04;;;;;;;11.30;5.77;;;;;;;;;;5085960;28;20241;-60
2023/05/25 03:43:31;;;;;;;9.70;6.33;;;;;;;;;;5086781;28;20300;-61
2023/05/25 03:45:58;;;;;;;10.07;6.33;;;;;;;;;;5081356;28;20204;-59
2023/05/25 03:48:26;;;;;;;11.37;6.57;;;;;;;;;;5086111;28;20312;-61
2023/05/25 03:50:53;;;;;;;9.67;6.00;;;;;;;;;;5088407;28;20269;-60
2023/05/25 03:53:20;;;;;;;11.93;6.90;;;;;;;;;;5083826;28;20744;-60
2023/05/25 03:55:50;;;;;;;14.97;6.67;;;;;;;;;;5080173;28;20607;-61
2023/05/25 03:58:18;;;;;;;12.07;6.63;;;;;;;;;;5078601;28;20589;-61
2023/05/25 04:00:47;;;;;;;15.33;6.63;;;;;;;;;;5081757;28;20230;-61
2023/05/25 04:03:15;;;;;;;10.87;6.40;;;;;;;;;;5056306;28;20270;-60
2023/05/25 04:05:44;;;;;;;13.73;6.60;;;;;;;;;;5076842;28;20201;-60
2023/05/25 04:08:16;;;;;;;9.47;5.83;;;;;;;;;;5076996;28;20261;-60
2023/05/25 04:10:48;;;;;;;14.00;6.27;;;;;;;;;;5071185;28;20494;-60
2023/05/25 04:13:15;;;;;;;13.07;6.80;;;;;;;;;;5076017;28;20236;-60
2023/05/25 04:15:43;;;;;;;13.30;6.77;;;;;;;;;;5074859;28;20205;-61
2023/05/25 04:18:10;;;;;;;12.80;6.60;;;;;;;;;;5057820;28;21391;-63
2023/05/25 04:20:38;;;;;;;13.83;6.77;;;;;;;;;;5084770;28;20209;-60
2023/05/25 04:23:05;;;;;;;13.43;7.07;;;;;;;;;;5080376;28;20232;-58
2023/05/25 04:25:32;;;;;;;12.50;6.53;;;;;;;;;;5080510;28;20193;-60
2023/05/25 04:28:00;;;;;;;11.37;6.57;;;;;;;;;;5079870;28;20711;-60
2023/05/25 04:30:27;;;;;;;13.07;7.27;;;;;;;;;;5086348;28;20216;-60
2023/05/25 04:32:56;;;;;;;12.53;6.63;;;;;;;;;;5079325;28;20197;-58
2023/05/25 04:35:25;;;;;;;14.43;6.37;;;;;;;;;;5091030;28;20223;-58
2023/05/25 04:37:55;;;;;;;17.47;7.63;;;;;;;;;;5081900;28;20213;-58
2023/05/25 04:40:22;;;;;;;12.17;7.37;;;;;;;;;;5083243;28;20282;-59
2023/05/25 04:42:52;;;;;;;12.53;7.03;;;;;;;;;;5076775;28;20295;-61
2023/05/25 04:45:20;;;;;;;12.30;7.03;;;;;;;;;;5089878;28;20569;-61
2023/05/25 04:47:48;;;;;;;18.10;7.27;;;;;;;;;;5090522;28;20201;-61
2023/05/25 04:50:16;;;;;;;13.53;6.97;;;;;;;;;;5071156;28;20307;-60
2023/05/25 04:52:43;;;;;;;16.10;7.40;;;;;;;;;;5092610;28;20200;-58
2023/05/25 04:55:11;;;;;;;14.30;6.77;;;;;;;;;;5088915;28;20204;-62
2023/05/25 04:57:38;;;;;;;12.23;6.63;;;;;;;;;;5087891;28;20204;-60
2023/05/25 05:00:08;;;;;;;13.73;6.73;;;;;;;;;;5081073;28;20229;-61
2023/05/25 05:02:36;;;;;;;14.40;7.37;;;;;;;;;;5087755;28;20443;-59
2023/05/25 05:05:03;;;;;;;10.00;6.90;;;;;;;;;;5088400;28;20283;-60
2023/05/25 05:07:30;;;;;;;12.57;7.33;;;;;;;;;;5082959;28;20587;-61
2023/05/25 05:09:58;;;;;;;14.57;7.97;;;;;;;;;;5088250;28;20216;-60
2023/05/25 05:12:26;;;;;;;11.87;7.73;;;;;;;;;;5081235;28;20204;-59
2023/05/25 05:14:54;;;;;;;15.53;7.90;;;;;;;;;;5079409;28;20201;-61
2023/05/25 05:17:22;;;;;;;13.63;8.27;;;;;;;;;;5086892;28;20205;-61
2023/05/25 05:19:50;;;;;;;12.10;8.87;;;;;;;;;;5084773;28;20310;-60
2023/05/25 05:22:17;;;;;;;13.23;8.47;;;;;;;;;;5091831;28;20289;-65
2023/05/25 05:24:44;;;;;;;14.00;8.63;;;;;;;;;;5065034;28;20639;-62
2023/05/25 05:27:15;;;;;;;14.70;9.00;;;;;;;;;;5078010;28;20271;-61
2023/05/25 05:29:42;;;;;;;14.37;9.10;;;;;;;;;;5076864;28;20259;-61
2023/05/25 05:32:10;;;;;;;16.90;10.27;;;;;;;;;;5076234;28;20801;-61
2023/05/25 05:34:37;;;;;;;16.50;9.90;;;;;;;;;;5090267;28;20257;-60
2023/05/25 05:37:04;;;;;;;14.57;10.37;;;;;;;;;;5088365;28;20222;-61
2023/05/25 05:39:32;;;;;;;14.97;9.53;;;;;;;;;;5087705;28;20309;-61
2023/05/25 05:42:00;;;;;;;13.23;10.17;;;;;;;;;;5086383;28;20219;-61
2023/05/25 05:44:27;;;;;;;18.13;10.13;;;;;;;;;;5082941;28;20196;-59
2023/05/25 05:46:59;;;;;;;15.67;9.87;;;;;;;;;;5066969;28;20236;-61
2023/05/25 05:49:28;;;;;;;14.10;10.33;;;;;;;;;;5083872;28;20224;-61
2023/05/25 05:51:55;;;;;;;15.80;9.47;;;;;;;;;;5083722;28;20212;-62
2023/05/25 05:54:23;;;;;;;15.80;10.10;;;;;;;;;;5080445;28;20205;-61
2023/05/25 05:56:50;;;;;;;16.53;10.87;;;;;;;;;;5079156;28;20207;-62
2023/05/25 05:59:18;;;;;;;15.03;9.60;;;;;;;;;;5077426;28;20236;-60
2023/05/25 06:01:45;;;;;;;14.60;10.00;;;;;;;;;;5080227;28;20201;-60
2023/05/25 06:04:14;;;;;;;15.60;9.93;;;;;;;;;;5077187;28;21570;-62
2023/05/25 06:06:42;;;;;;;16.97;10.57;;;;;;;;;;5072705;28;20234;-61
2023/05/25 06:09:09;;;;;;;15.53;11.03;;;;;;;;;;5077710;28;20722;-60
2023/05/25 06:11:38;;;;;;;14.73;9.70;;;;;;;;;;5084125;28;20209;-59
2023/05/25 06:14:06;;;;;;;14.27;10.07;;;;;;;;;;5068726;28;20197;-59
2023/05/25 06:16:33;;;;;;;15.20;9.63;;;;;;;;;;5088002;28;20208;-60
2023/05/25 06:19:01;;;;;;;12.40;10.40;;;;;;;;;;5079615;28;20316;-59
2023/05/25 06:21:28;;;;;;;13.33;9.53;;;;;;;;;;5086443;28;20212;-61
2023/05/25 06:23:56;;;;;;;14.67;9.33;;;;;;;;;;5089315;28;20215;-60
2023/05/25 06:26:24;;;;;;;13.60;9.90;;;;;;;;;;5074721;28;20197;-59
2023/05/25 06:28:51;;;;;;;13.90;9.87;;;;;;;;;;5084856;28;20740;-60
2023/05/25 06:31:18;;;;;;;12.10;9.90;;;;;;;;;;5079717;28;20212;-59
2023/05/25 06:33:45;;;;;;;12.43;9.10;;;;;;;;;;5084116;28;20205;-59
2023/05/25 06:36:14;;;;;;;14.20;9.90;;;;;;;;;;5083716;28;20212;-60
2023/05/25 06:38:42;;;;;;;13.33;10.20;;;;;;;;;;5083775;28;20300;-59
2023/05/25 06:41:11;;;;;;;20.03;11.37;;;;;;;;;;5085849;28;20607;-60
2023/05/25 06:43:38;;;;;;;15.13;10.43;;;;;;;;;;5085808;28;20318;-60
2023/05/25 06:46:06;;;;;;;14.77;10.30;;;;;;;;;;5090092;28;20556;-62
2023/05/25 06:48:33;;;;;;;15.13;11.27;;;;;;;;;;5082947;28;20245;-60
2023/05/25 06:51:00;;;;;;;16.83;12.07;;;;;;;;;;5090040;28;20201;-62
2023/05/25 06:53:28;;;;;;;20.03;13.20;;;;;;;;;;5083434;28;20209;-61
2023/05/25 06:55:55;;;;;;;18.27;13.20;;;;;;;;;;5086077;28;20200;-60
2023/05/25 06:58:23;;;;;;;16.73;13.80;;;;;;;;;;5089650;28;20768;-60
2023/05/25 07:00:50;;;;;;;20.97;13.47;;;;;;;;;;5091179;28;20632;-60
2023/05/25 07:03:18;;;;;;;19.53;14.10;;;;;;;;;;5080131;28;20882;-60
2023/05/25 07:05:45;;;;;;;17.20;12.63;;;;;;;;;;5083144;28;20200;-61
2023/05/25 07:08:12;;;;;;;20.20;13.47;;;;;;;;;;5082611;28;20212;-60
2023/05/25 07:10:40;;;;;;;18.80;13.00;;;;;;;;;;5081265;28;20205;-61
2023/05/25 07:13:07;;;;;;;17.87;12.33;;;;;;;;;;5087811;28;20204;-60
2023/05/25 07:15:34;;;;;;;16.70;12.57;;;;;;;;;;5083735;28;20761;-58
2023/05/25 07:18:02;;;;;;;19.93;13.07;;;;;;;;;;5092334;28;20222;-59
2023/05/25 07:20:29;;;;;;;17.20;12.73;;;;;;;;;;5087466;28;20225;-61
2023/05/25 07:22:57;;;;;;;16.97;12.67;;;;;;;;;;5088700;28;20223;-60
2023/05/25 07:25:24;;;;;;;15.00;12.73;;;;;;;;;;5083339;28;20205;-62
2023/05/25 07:27:53;;;;;;;18.80;12.87;;;;;;;;;;5067861;28;20215;-61
2023/05/25 07:30:21;;;;;;;18.67;12.93;;;;;;;;;;5085481;28;20236;-59
2023/05/25 07:32:48;;;;;;;18.60;13.80;;;;;;;;;;5089259;28;20208;-59
2023/05/25 07:35:15;;;;;;;22.67;14.73;;;;;;;;;;5085588;28;20228;-59
2023/05/25 07:37:43;;;;;;;22.10;14.17;;;;;;;;;;5081832;28;20250;-63
2023/05/25 07:40:10;;;;;;;21.83;14.10;;;;;;;;;;5067607;28;20229;-60
2023/05/25 07:42:37;;;;;;;16.13;14.43;;;;;;;;;;5068066;28;20267;-61
2023/05/25 07:45:05;;;;;;;19.93;14.83;;;;;;;;;;5079190;28;20268;-62
2023/05/25 07:47:32;;;;;;;20.50;15.07;;;;;;;;;;5085766;28;20254;-60
2023/05/25 07:50:00;;;;;;;19.57;14.23;;;;;;;;;;5083224;28;20239;-61
2023/05/25 07:52:27;;;;;;;16.97;13.47;;;;;;;;;;5090614;28;20193;-59
2023/05/25 07:54:54;;;;;;;15.67;11.67;;;;;;;;;;5081889;28;20202;-61
2023/05/25 07:57:22;;;;;;;16.20;11.73;;;;;;;;;;5083066;28;20654;-61
2023/05/25 07:59:49;;;;;;;18.57;11.37;;;;;;;;;;5093619;28;20289;-61
2023/05/25 08:02:16;;;;;;;15.17;10.97;;;;;;;;;;5086179;28;20205;-62
2023/05/25 08:04:43;;;;;;;13.93;11.13;;;;;;;;;;5082081;28;20299;-59
2023/05/25 08:07:11;;;;;;;19.30;12.17;;;;;;;;;;5086108;28;20203;-61
2023/05/25 08:09:38;;;;;;;16.77;11.60;;;;;;;;;;5080613;28;20227;-60
2023/05/25 08:12:05;;;;;;;14.63;11.47;;;;;;;;;;5088755;28;20250;-62
2023/05/25 08:14:53;;;;;;;16.13;11.63;;;;;;;;;;5083298;28;20275;-63
2023/05/25 08:17:21;;;;;;;15.97;10.50;;;;;;;;;;5089425;28;20194;-62
2023/05/25 08:19:48;;;;;;;15.87;11.43;;;;;;;;;;5085707;28;20216;-60
2023/05/25 08:22:16;;;;;;;13.80;10.20;;;;;;;;;;5090680;28;20204;-62
2023/05/25 08:24:43;;;;;;;15.53;10.77;;;;;;;;;;5084343;28;20197;-62
2023/05/25 08:27:10;;;;;;;13.60;10.90;;;;;;;;;;5082494;28;20202;-61
2023/05/25 08:29:38;;;;;;;16.63;10.90;;;;;;;;;;5079581;28;20225;-62
2023/05/25 08:32:05;;;;;;;15.27;11.03;;;;;;;;;;5080617;28;20575;-61
2023/05/25 08:34:33;;;;;;;12.25;10.32;;;;;;;;;;5079988;28;20781;-61
2023/05/25 08:37:00;;;;;;;12.15;10.18;;;;;;;;;;5090815;28;20213;-62
2023/05/25 08:39:27;;;;;;;10.90;9.75;;;;;;;;;;5081739;28;20229;-61
2023/05/25 08:41:55;;;;;;;14.60;9.73;;;;;;;;;;5061534;28;20601;-61
2023/05/25 08:44:22;;;;;;;12.95;10.02;;;;;;;;;;5077447;28;20244;-59
2023/05/25 08:46:50;;;;;;;12.07;10.25;;;;;;;;;;5085253;28;20216;-59
2023/05/25 08:49:17;;;;;;;11.35;9.60;;;;;;;;;;5071159;28;20221;-62
2023/05/25 08:51:49;;;;;;;15.57;9.48;;;;;;;;;;5069714;28;20196;-62
2023/05/25 08:54:18;;;;;;;13.65;9.65;;;;;;;;;;5084771;28;20575;-59
2023/05/25 08:56:50;;;;;;;13.48;9.32;;;;;;;;;;5086464;28;20622;-60
2023/05/25 08:59:25;;;;;;;13.57;9.88;;;;;;;;;;5082312;28;20330;-61
2023/05/25 09:01:55;;;;;;;12.20;9.73;;;;;;;;;;5080415;28;20215;-59
2023/05/25 09:04:23;;;;;;;10.32;9.13;;;;;;;;;;5073808;28;20289;-59
2023/05/25 09:06:50;;;;;;;10.15;9.15;;;;;;;;;;5080295;28;20782;-62
2023/05/25 09:09:21;;;;;;;10.15;9.10;;;;;;;;;;5092836;28;20286;-60
2023/05/25 09:11:48;;;;;;;13.10;8.82;;;;;;;;;;5081307;28;20226;-63
2023/05/25 09:14:16;;;;;;;9.52;8.23;;;;;;;;;;5083853;28;20216;-63
2023/05/25 09:16:43;;;;;;;13.25;8.70;;;;;;;;;;5090411;28;20212;-60
2023/05/25 09:19:11;;;;;;;12.63;8.82;;;;;;;;;;5086065;28;20270;-59
2023/05/25 09:21:38;;;;;;;9.38;7.88;;;;;;;;;;5069942;28;20231;-61
2023/05/25 09:24:06;;;;;;;11.35;8.43;;;;;;;;;;5081084;28;20224;-62
2023/05/25 09:26:34;;;;;;;9.75;7.70;;;;;;;;;;5083201;28;20196;-60
2023/05/25 09:29:01;;;;;;;8.65;7.38;;;;;;;;;;5088127;28;20213;-61
2023/05/25 09:31:29;;;;;;;13.60;8.70;;;;;;;;;;5067352;28;20209;-59
2023/05/25 09:33:58;;;;;;;10.20;7.85;;;;;;;;;;5084832;28;20202;-59
2023/05/25 09:36:26;;;;;;;10.98;7.57;;;;;;;;;;5077354;28;20209;-59
2023/05/25 09:38:55;;;;;;;10.05;7.80;;;;;;;;;;5078419;28;20226;-60
2023/05/25 09:41:26;;;;;;;10.80;7.88;;;;;;;;;;5078109;28;20262;-60
2023/05/25 09:43:54;;;;;;;11.45;8.27;;;;;;;;;;5081983;28;20698;-60
2023/05/25 09:46:37;;;;;;;9.40;7.78;;;;;;;;;;5085093;28;20201;-60
2023/05/25 09:49:07;;;;;;;9.00;7.93;;;;;;;;;;5078675;28;20224;-60
2023/05/25 09:51:35;;;;;;;11.07;8.30;;;;;;;;;;5072449;28;20224;-59
2023/05/25 09:54:04;;;;;;;11.57;7.88;;;;;;;;;;5094610;28;20270;-61
2023/05/25 09:56:32;;;;;;;12.98;7.95;;;;;;;;;;5083260;28;20208;-63
2023/05/25 09:59:00;;;;;;;11.10;8.70;;;;;;;;;;5078606;28;21435;-62
2023/05/25 10:01:27;;;;;;;11.45;8.77;;;;;;;;;;5092014;28;20205;-62
2023/05/25 10:03:55;;;;;;;10.73;8.13;;;;;;;;;;5085590;28;20219;-60
2023/05/25 10:06:32;;;;;;;12.63;8.73;;;;;;;;;;5080628;28;20201;-61
2023/05/25 10:09:00;;;;;;;11.38;8.15;;;;;;;;;;5086484;28;20275;-59
2023/05/25 10:11:28;;;;;;;10.48;8.48;;;;;;;;;;5086059;28;20745;-60
2023/05/25 10:13:57;;;;;;;10.20;8.90;;;;;;;;;;5086543;28;20653;-59
2023/05/25 10:16:28;;;;;;;10.52;8.48;;;;;;;;;;5084470;28;20613;-59
2023/05/25 10:19:16;;;;;;;10.25;8.48;;;;;;;;;;5080983;28;20253;-62
2023/05/25 10:21:47;;;;;;;10.80;8.07;;;;;;;;;;5083762;28;20258;-59
2023/05/25 10:24:22;;;;;;;12.63;8.90;;;;;;;;;;5076250;28;20241;-61
2023/05/25 10:26:52;;;;;;;10.32;8.05;;;;;;;;;;5077419;28;20212;-60
2023/05/25 10:29:20;;;;;;;12.68;8.25;;;;;;;;;;5079489;28;20216;-59
2023/05/25 10:31:47;;;;;;;10.85;7.82;;;;;;;;;;5089422;28;20676;-62
2023/05/25 10:34:16;;;;;;;9.05;7.63;;;;;;;;;;5089037;28;20339;-61
2023/05/25 10:36:44;;;;;;;11.25;8.10;;;;;;;;;;5076899;28;20208;-62
2023/05/25 10:39:12;;;;;;;11.00;8.02;;;;;;;;;;5088849;28;20883;-61
2023/05/25 10:41:39;;;;;;;10.18;8.45;;;;;;;;;;5087049;28;20200;-59
2023/05/25 10:44:07;;;;;;;11.02;8.30;;;;;;;;;;5085447;28;20247;-60
2023/05/25 10:46:35;;;;;;;9.38;7.18;;;;;;;;;;5087906;28;20220;-61
2023/05/25 10:49:02;;;;;;;9.82;7.68;;;;;;;;;;5076139;28;20228;-60
2023/05/25 10:51:40;;;;;;;11.43;7.88;;;;;;;;;;5082148;28;20197;-59
2023/05/25 10:54:07;;;;;;;13.75;8.40;;;;;;;;;;5086301;28;20242;-60
2023/05/25 10:56:34;;;;;;;11.15;8.15;;;;;;;;;;5082382;28;20205;-63
2023/05/25 10:59:02;;;;;;;9.32;8.07;;;;;;;;;;5083036;28;20273;-61
2023/05/25 11:01:33;;;;;;;12.60;8.82;;;;;;;;;;5079285;28;20584;-61
2023/05/25 11:04:10;;;;;;;11.85;8.10;;;;;;;;;;5080326;28;20224;-61
2023/05/25 11:06:42;;;;;;;13.25;9.27;;;;;;;;;;5077163;28;20212;-61
2023/05/25 11:09:26;;;;;;;12.05;8.43;;;;;;;;;;5084608;28;20230;-61
2023/05/25 11:11:58;;;;;;;10.52;7.72;;;;;;;;;;5080391;28;20257;-61
2023/05/25 11:14:37;;;;;;;12.85;8.25;;;;;;;;;;5082321;28;20208;-61
2023/05/25 11:17:06;;;;;;;11.63;7.70;;;;;;;;;;5081572;28;20610;-59
2023/05/25 11:19:40;;;;;;;10.48;7.70;;;;;;;;;;5082503;28;20229;-61
2023/05/25 11:22:19;;;;;;;8.98;7.40;;;;;;;;;;5078060;28;20201;-61
2023/05/25 11:24:47;;;;;;;10.65;6.75;;;;;;;;;;5086898;28;20601;-61
2023/05/25 11:27:14;;;;;;;10.40;8.18;;;;;;;;;;5081988;28;20286;-61
2023/05/25 11:29:41;;;;;;;10.93;7.68;;;;;;;;;;5082050;28;20220;-60
2023/05/25 11:32:13;;;;;;;9.23;7.05;;;;;;;;;;5081402;28;20209;-61
2023/05/25 11:34:45;;;;;;;10.02;7.50;;;;;;;;;;5082476;28;20216;-63
2023/05/25 11:37:16;;;;;;;9.07;7.72;;;;;;;;;;5085215;28;20440;-61
2023/05/25 11:39:46;;;;;;;8.48;7.55;;;;;;;;;;5083301;28;20233;-60
2023/05/25 11:42:15;;;;;;;11.32;8.60;;;;;;;;;;5085581;28;20270;-62
2023/05/25 11:44:42;;;;;;;11.32;7.97;;;;;;;;;;5088308;28;20220;-62
2023/05/25 11:47:17;;;;;;;9.30;7.55;;;;;;;;;;5080103;28;20205;-62
2023/05/25 11:49:46;;;;;;;9.05;7.82;;;;;;;;;;5085849;28;20669;-60
2023/05/25 11:52:14;;;;;;;11.07;7.97;;;;;;;;;;5087378;28;20294;-61
2023/05/25 11:54:41;;;;;;;9.25;8.13;;;;;;;;;;5090746;28;20209;-62
2023/05/25 11:57:16;;;;;;;10.10;8.55;;;;;;;;;;5087633;28;20204;-61
2023/05/25 12:00:05;;;;;;;11.15;9.02;;;;;;;;;;5081164;28;20235;-62
2023/05/25 12:02:37;;;;;;;11.35;8.82;;;;;;;;;;5079161;28;20198;-64
2023/05/25 12:05:06;;;;;;;9.95;8.10;;;;;;;;;;5085923;28;20213;-61
2023/05/25 12:07:42;;;;;;;9.63;7.80;;;;;;;;;;5085549;28;20215;-62
2023/05/25 12:10:11;;;;;;;8.75;7.85;;;;;;;;;;5086169;28;20225;-61
2023/05/25 12:12:44;;;;;;;12.93;8.55;;;;;;;;;;5088170;28;20201;-61
2023/05/25 12:15:13;;;;;;;10.98;8.23;;;;;;;;;;5065061;28;20879;-61
2023/05/25 12:17:41;;;;;;;11.60;8.50;;;;;;;;;;5088940;28;20216;-62
2023/05/25 12:20:16;;;;;;;11.38;8.15;;;;;;;;;;5085551;28;20224;-59
2023/05/25 12:22:45;;;;;;;10.93;8.13;;;;;;;;;;5084486;28;20197;-61
2023/05/25 12:25:14;;;;;;;10.40;7.95;;;;;;;;;;5086030;28;20279;-64
2023/05/25 12:27:42;;;;;;;9.18;7.82;;;;;;;;;;5089090;28;20200;-60
2023/05/25 12:30:10;;;;;;;10.68;8.23;;;;;;;;;;5074536;28;20249;-59
2023/05/25 12:32:53;;;;;;;10.88;8.68;;;;;;;;;;5088190;28;20228;-61
2023/05/25 12:35:20;;;;;;;10.50;8.25;;;;;;;;;;5084519;28;20209;-63
2023/05/25 12:37:48;;;;;;;13.65;7.93;;;;;;;;;;5092182;28;20209;-62
2023/05/25 12:40:19;;;;;;;10.38;8.07;;;;;;;;;;5089290;28;20655;-61
2023/05/25 12:42:55;;;;;;;11.35;8.60;;;;;;;;;;5084146;28;20307;-62
2023/05/25 12:45:23;;;;;;;13.02;8.45;;;;;;;;;;5088003;28;20233;-61
2023/05/25 12:47:50;;;;;;;10.98;8.27;;;;;;;;;;5084566;28;20223;-60
2023/05/25 12:50:18;;;;;;;9.18;7.70;;;;;;;;;;5083131;28;20283;-61
2023/05/25 12:52:46;;;;;;;8.65;7.70;;;;;;;;;;5086196;28;20201;-60
2023/05/25 12:55:25;;;;;;;13.32;9.00;;;;;;;;;;5086423;28;20213;-64
2023/05/25 12:57:57;;;;;;;17.52;8.80;;;;;;;;;;5093159;28;20195;-60
2023/05/25 13:00:24;;;;;;;12.48;8.02;;;;;;;;;;5085097;28;20665;-61
2023/05/25 13:02:52;;;;;;;10.27;8.43;;;;;;;;;;5088718;28;20217;-61
2023/05/25 13:05:22;;;;;;;12.65;8.68;;;;;;;;;;5075368;28;20252;-61
2023/05/25 13:07:50;;;;;;;13.25;8.80;;;;;;;;;;5080125;28;20270;-61
2023/05/25 13:10:18;;;;;;;10.30;7.97;;;;;;;;;;5084993;28;20221;-60
2023/05/25 13:12:46;;;;;;;12.20;7.97;;;;;;;;;;5086086;28;20626;-61
2023/05/25 13:15:15;;;;;;;14.73;7.80;;;;;;;;;;5083812;28;20564;-62
2023/05/25 13:17:42;;;;;;;13.45;9.07;;;;;;;;;;5088010;28;20315;-61
2023/05/25 13:20:14;;;;;;;9.00;8.10;;;;;;;;;;5087315;28;20717;-60
2023/05/25 13:22:43;;;;;;;11.23;7.68;;;;;;;;;;5082684;28;20203;-60
2023/05/25 13:25:11;;;;;;;8.57;7.57;;;;;;;;;;5074598;28;20258;-60
2023/05/25 13:27:44;;;;;;;13.93;7.90;;;;;;;;;;5075251;28;20197;-60
2023/05/25 13:30:12;;;;;;;9.15;7.13;;;;;;;;;;5080408;28;20228;-60
2023/05/25 13:32:40;;;;;;;8.93;6.95;;;;;;;;;;5077419;28;20217;-63
2023/05/25 13:35:16;;;;;;;10.68;7.15;;;;;;;;;;5083839;28;20671;-62
2023/05/25 13:37:43;;;;;;;11.82;7.85;;;;;;;;;;5084399;28;20200;-60
2023/05/25 13:40:11;;;;;;;11.07;7.60;;;;;;;;;;5083033;28;20299;-60
2023/05/25 13:42:38;;;;;;;10.60;7.28;;;;;;;;;;5082478;28;20295;-61
2023/05/25 13:45:05;;;;;;;13.85;7.47;;;;;;;;;;5076434;28;20228;-60
2023/05/25 13:47:33;;;;;;;8.98;6.63;;;;;;;;;;5079393;28;20205;-61
2023/05/25 13:50:00;;;;;;;10.38;6.70;;;;;;;;;;5077008;28;20228;-60
2023/05/25 13:52:27;;;;;;;11.15;6.47;;;;;;;;;;5061510;28;20701;-60
2023/05/25 13:54:58;;;;;;;9.05;6.97;;;;;;;;;;5078113;28;20208;-60
2023/05/25 13:57:25;;;;;;;7.68;6.88;;;;;;;;;;5080421;28;20499;-61
2023/05/25 13:59:52;;;;;;;10.50;6.47;;;;;;;;;;5065395;28;20498;-61
2023/05/25 14:02:20;;;;;;;9.02;6.15;;;;;;;;;;5081633;28;20206;-60
2023/05/25 14:04:47;;;;;;;8.20;6.35;;;;;;;;;;5078709;28;20220;-61
2023/05/25 14:07:14;;;;;;;8.50;5.88;;;;;;;;;;5070813;28;20672;-60
2023/05/25 14:09:42;;;;;;;10.18;6.80;;;;;;;;;;5070092;28;20217;-61
2023/05/25 14:12:09;;;;;;;8.40;5.78;;;;;;;;;;5066413;28;21656;-60
2023/05/25 14:14:39;;;;;;;7.10;5.68;;;;;;;;;;5066600;28;20212;-60
2023/05/25 14:17:07;;;;;;;8.98;5.90;;;;;;;;;;5074466;28;20619;-60
2023/05/25 14:19:34;;;;;;;8.15;5.70;;;;;;;;;;5068367;28;20225;-61
2023/05/25 14:22:02;;;;;;;9.75;6.18;;;;;;;;;;5071416;28;20228;-61
2023/05/25 14:24:40;;;;;;;9.00;6.18;;;;;;;;;;5075304;28;20720;-59
2023/05/25 14:27:08;;;;;;;10.98;6.00;;;;;;;;;;5066274;28;20249;-60
2023/05/25 14:29:35;;;;;;;10.52;5.82;;;;;;;;;;5068555;28;20387;-62
2023/05/25 14:32:03;;;;;;;9.52;5.93;;;;;;;;;;5062758;28;20199;-61
2023/05/25 14:34:30;;;;;;;10.50;6.22;;;;;;;;;;5070983;28;20700;-60
2023/05/25 14:36:57;;;;;;;6.97;5.47;;;;;;;;;;5076713;28;20841;-62
2023/05/25 14:39:25;;;;;;;8.40;5.43;;;;;;;;;;5075661;28;20636;-59